Time;durP1;ratioP1;P1;durP2;ratioP2;P2;SDS_P1;SDS_P2;PMS_P1;PMS_P2;Temp;Humidity;BMP_temperature;BMP_pressure;BME280_temperature;BME280_humidity;BME280_pressure;Samples;Min_cycle;Max_cycle;Signal;HPM_P1;HPM_P2
2022/05/14 00:01:13;;;;;;;17.33;3.33;;;;;;;11.64;88.70;102042.16;5058253;28;20029;-82
2022/05/14 00:03:39;;;;;;;13.50;3.38;;;;;;;11.58;89.27;102033.69;5056940;28;20059;-82
2022/05/14 00:06:08;;;;;;;15.95;3.65;;;;;;;11.55;90.00;102038.47;5055888;28;20032;-82
2022/05/14 00:08:33;;;;;;;16.20;4.43;;;;;;;11.50;91.09;102038.88;5056967;28;20036;-83
2022/05/14 00:13:44;;;;;;;16.50;4.40;;;;;;;11.50;92.13;102041.56;5057797;28;20105;-82
2022/05/14 00:16:11;;;;;;;13.68;4.47;;;;;;;11.44;91.58;102039.44;5044855;28;20158;-82
2022/05/14 00:18:37;;;;;;;18.95;4.40;;;;;;;11.39;92.94;102041.69;5036731;28;20029;-82
2022/05/14 00:21:04;;;;;;;18.40;4.55;;;;;;;11.37;92.30;102036.47;5037770;28;20045;-82
2022/05/14 00:23:29;;;;;;;18.33;4.07;;;;;;;11.35;91.65;102043.81;5019205;28;20021;-83
2022/05/14 00:25:55;;;;;;;19.35;4.90;;;;;;;11.34;91.49;102036.75;5037953;28;20340;-87
2022/05/14 00:28:20;;;;;;;14.60;4.20;;;;;;;11.31;90.62;102030.81;5020058;28;20032;-87
2022/05/14 00:30:47;;;;;;;16.67;4.10;;;;;;;11.33;91.05;102039.56;5019634;28;20180;-86
2022/05/14 00:33:12;;;;;;;14.85;4.00;;;;;;;11.29;91.24;102027.44;5037979;28;20450;-81
2022/05/14 00:35:38;;;;;;;14.93;4.07;;;;;;;11.32;90.78;102032.50;5037026;28;20116;-81
2022/05/14 00:38:05;;;;;;;14.20;3.65;;;;;;;11.27;90.91;102024.91;5036617;28;20175;-80
2022/05/14 00:40:35;;;;;;;20.90;3.80;;;;;;;11.24;90.65;102022.50;5034758;28;20103;-81
2022/05/14 00:43:00;;;;;;;16.38;4.10;;;;;;;11.19;90.36;102019.38;5036238;28;20544;-80
2022/05/14 00:45:28;;;;;;;11.05;3.67;;;;;;;11.26;90.33;102030.41;5036045;28;20017;-81
2022/05/14 00:47:56;;;;;;;16.17;4.10;;;;;;;11.25;89.81;102023.34;5037479;28;20403;-81
2022/05/14 00:50:26;;;;;;;12.55;3.83;;;;;;;11.28;89.38;102031.94;5037340;28;20550;-80
2022/05/14 00:52:58;;;;;;;10.68;3.95;;;;;;;11.25;89.04;102024.19;5037449;28;20017;-80
2022/05/14 00:55:25;;;;;;;14.25;3.90;;;;;;;11.24;88.76;102019.00;5037046;28;20029;-81
2022/05/14 00:57:51;;;;;;;13.55;3.70;;;;;;;11.22;89.18;102018.25;5041494;28;20016;-81
2022/05/14 01:00:21;;;;;;;9.77;3.50;;;;;;;11.17;89.13;102021.38;5056822;28;20020;-81
2022/05/14 01:02:47;;;;;;;18.33;3.70;;;;;;;11.18;88.70;102010.53;5056894;28;20051;-81
2022/05/14 01:05:13;;;;;;;9.90;3.30;;;;;;;11.16;88.39;102015.16;5057322;28;20394;-80
2022/05/14 01:07:40;;;;;;;10.02;3.53;;;;;;;11.09;88.63;102008.66;5055578;28;20030;-81
2022/05/14 01:10:09;;;;;;;14.50;3.38;;;;;;;11.08;88.05;102014.13;5056236;28;20313;-81
2022/05/14 01:12:35;;;;;;;13.65;3.35;;;;;;;11.00;87.80;102006.81;5054906;28;20021;-81
2022/05/14 01:15:23;;;;;;;9.60;3.30;;;;;;;10.97;87.51;102010.59;5057365;28;20380;-82
2022/05/14 01:17:49;;;;;;;15.38;3.28;;;;;;;10.97;88.22;102009.75;5037261;28;20029;-82
2022/05/14 01:20:16;;;;;;;11.52;3.10;;;;;;;10.95;88.15;102011.72;5037061;28;20078;-82
2022/05/14 01:22:52;;;;;;;13.35;3.20;;;;;;;10.95;87.90;102012.56;5037145;28;20428;-86
2022/05/14 01:28:10;;;;;;;11.18;3.22;;;;;;;10.91;87.88;102008.47;5037555;28;20171;-86
2022/05/14 01:30:49;;;;;;;13.70;3.03;;;;;;;10.87;87.69;102015.06;5037922;28;20025;-86
2022/05/14 01:33:14;;;;;;;15.75;3.60;;;;;;;10.81;87.88;102012.91;5041564;28;20021;-86
2022/05/14 01:35:41;;;;;;;9.10;3.13;;;;;;;10.72;88.47;102006.53;5042163;28;20435;-86
2022/05/14 01:38:06;;;;;;;13.50;3.78;;;;;;;10.63;89.02;102004.69;5042871;28;20103;-82
2022/05/14 01:40:32;;;;;;;12.35;3.40;;;;;;;10.61;89.05;102017.34;5059915;28;20124;-82
2022/05/14 01:42:58;;;;;;;11.40;3.33;;;;;;;10.52;89.42;102007.41;5060488;28;20112;-86
2022/05/14 01:45:25;;;;;;;12.20;3.50;;;;;;;10.51;89.44;102019.09;5061683;28;20031;-87
2022/05/14 01:47:51;;;;;;;15.88;4.30;;;;;;;10.43;90.45;102009.91;5062092;28;20126;-87
2022/05/14 01:50:16;;;;;;;14.15;4.05;;;;;;;10.42;90.72;102015.38;5062815;28;20029;-86
2022/05/14 01:52:41;;;;;;;21.05;3.90;;;;;;;10.37;90.74;102021.13;5045007;28;20425;-87
2022/05/14 01:55:07;;;;;;;15.88;3.60;;;;;;;10.38;91.05;102019.28;5063270;28;20028;-86
2022/05/14 01:57:32;;;;;;;14.45;3.83;;;;;;;10.33;91.23;102019.69;5061667;28;20013;-87
2022/05/14 01:59:58;;;;;;;16.65;3.90;;;;;;;10.32;91.06;102020.69;5064328;28;20024;-87
2022/05/14 02:02:23;;;;;;;13.32;4.13;;;;;;;10.29;91.13;102026.25;5064494;28;20448;-87
2022/05/14 02:04:48;;;;;;;10.77;3.97;;;;;;;10.27;91.37;102033.53;5047044;28;20074;-87
2022/05/14 02:07:14;;;;;;;15.98;4.10;;;;;;;10.23;91.86;102024.94;5043582;28;20051;-87
2022/05/14 02:09:39;;;;;;;8.80;3.75;;;;;;;10.18;91.54;102024.47;5059425;28;20043;-87
2022/05/14 02:12:05;;;;;;;12.15;3.67;;;;;;;10.18;91.66;102024.47;5061573;28;20404;-87
2022/05/14 02:14:30;;;;;;;13.35;3.58;;;;;;;10.18;91.82;102023.63;5061783;28;20048;-88
2022/05/14 02:16:56;;;;;;;17.08;3.97;;;;;;;10.14;91.70;102028.38;5043890;28;20032;-88
2022/05/14 02:19:21;;;;;;;11.30;3.90;;;;;;;10.13;92.90;102037.34;5061691;28;20055;-87
2022/05/14 02:21:46;;;;;;;14.23;4.07;;;;;;;10.14;92.41;102027.53;5060011;28;20039;-87
2022/05/14 02:24:12;;;;;;;14.02;4.03;;;;;;;10.16;92.16;102023.75;5043488;28;20410;-87
2022/05/14 02:26:37;;;;;;;11.00;4.28;;;;;;;10.13;92.77;102033.84;5060127;28;20134;-87
2022/05/14 02:29:02;;;;;;;11.57;4.25;;;;;;;10.11;92.79;102033.13;5060129;28;20024;-87
2022/05/14 02:31:28;;;;;;;15.93;4.43;;;;;;;10.07;93.09;102038.72;5060789;28;20050;-87
2022/05/14 02:33:54;;;;;;;11.18;4.55;;;;;;;10.06;93.13;102030.84;5061489;28;20024;-87
2022/05/14 02:36:19;;;;;;;12.18;4.15;;;;;;;10.02;93.47;102037.41;5059034;28;20645;-82
2022/05/14 02:38:45;;;;;;;14.57;4.90;;;;;;;9.97;93.77;102035.13;5059470;28;20032;-82
2022/05/14 02:41:12;;;;;;;16.83;4.80;;;;;;;9.91;94.39;102030.28;5057997;28;20068;-82
2022/05/14 02:43:37;;;;;;;14.57;4.65;;;;;;;9.91;95.01;102032.94;5058632;28;20111;-83
2022/05/14 02:46:04;;;;;;;11.48;4.85;;;;;;;9.93;95.23;102036.38;5059097;28;20132;-82
2022/05/14 02:48:29;;;;;;;10.75;5.10;;;;;;;9.93;95.68;102033.69;5057741;28;20040;-82
2022/05/14 02:50:58;;;;;;;19.77;5.22;;;;;;;9.99;95.50;102029.66;5060096;28;20082;-87
2022/05/14 02:53:24;;;;;;;15.13;5.18;;;;;;;9.98;96.07;102035.97;5060363;28;20107;-86
2022/05/14 02:55:50;;;;;;;16.42;4.93;;;;;;;10.01;95.94;102041.03;5058321;28;20107;-88
2022/05/14 02:59:06;;;;;;;12.45;4.90;;;;;;;9.97;95.64;102035.13;5060237;28;20463;-88
2022/05/14 03:01:00;;;;;;;13.48;4.78;;;;;;;9.95;95.89;102039.75;5060630;28;20040;-83
2022/05/14 03:03:26;;;;;;;17.27;5.28;;;;;;;9.89;96.19;102033.09;5041492;28;20028;-88
2022/05/14 03:05:51;;;;;;;18.25;5.20;;;;;;;9.88;96.30;102033.22;5067389;28;20020;-89
2022/05/14 03:08:16;;;;;;;12.63;5.25;;;;;;;9.84;96.56;102040.66;5080329;28;20032;-88
2022/05/14 03:10:42;;;;;;;15.32;5.43;;;;;;;9.81;97.96;102040.03;5078200;28;20028;-88
2022/05/14 03:13:07;;;;;;;15.02;5.30;;;;;;;9.75;97.44;102027.22;5062162;28;20178;-84
2022/05/14 03:15:32;;;;;;;11.40;5.10;;;;;;;9.76;98.80;102036.88;5060694;28;20151;-83
2022/05/14 03:17:58;;;;;;;19.60;5.30;;;;;;;9.76;99.36;102044.91;5061824;28;20039;-82
2022/05/14 03:20:23;;;;;;;18.73;5.53;;;;;;;9.74;99.45;102038.84;5079627;28;20013;-88
2022/05/14 03:22:48;;;;;;;14.05;5.40;;;;;;;9.76;99.04;102036.88;5084974;28;20204;-87
2022/05/14 03:25:14;;;;;;;20.20;5.60;;;;;;;9.75;99.53;102025.38;5080222;28;20024;-87
2022/05/14 03:27:39;;;;;;;16.45;5.60;;;;;;;9.79;99.39;102033.97;5059243;28;20036;-87
2022/05/14 03:30:05;;;;;;;13.48;5.18;;;;;;;9.75;98.20;102038.72;5061652;28;20222;-82
2022/05/14 03:32:30;;;;;;;14.82;5.25;;;;;;;9.69;98.41;102032.06;5078354;28;20027;-82
2022/05/14 03:34:58;;;;;;;18.85;5.68;;;;;;;9.70;98.48;102028.41;5078978;28;20039;-86
2022/05/14 03:37:24;;;;;;;15.35;5.47;;;;;;;9.70;98.90;102033.75;5079343;28;20019;-86
2022/05/14 03:39:49;;;;;;;17.83;5.47;;;;;;;9.69;98.60;102023.22;5080457;28;20036;-86
2022/05/14 03:42:15;;;;;;;17.20;5.55;;;;;;;9.64;98.33;102033.41;5077838;28;20194;-86
2022/05/14 03:44:40;;;;;;;18.85;6.05;;;;;;;9.49;99.07;102016.88;5051843;28;20550;-87
2022/05/14 03:47:05;;;;;;;15.27;5.80;;;;;;;9.43;99.10;102036.03;5060903;28;20013;-88
2022/05/14 03:49:31;;;;;;;12.48;5.57;;;;;;;9.42;99.27;102042.31;5060150;28;20332;-87
2022/05/14 03:51:56;;;;;;;12.05;5.88;;;;;;;9.37;99.96;102034.72;5058735;28;20035;-87
2022/05/14 03:54:21;;;;;;;19.38;6.05;;;;;;;9.37;99.48;102034.72;5041009;28;20016;-87
2022/05/14 03:56:47;;;;;;;13.07;5.50;;;;;;;9.32;100.00;102035.06;5056091;28;20430;-87
2022/05/14 03:59:12;;;;;;;16.85;5.68;;;;;;;9.29;100.00;102034.47;5059152;28;20024;-86
2022/05/14 04:01:38;;;;;;;20.05;5.13;;;;;;;9.29;100.00;102034.47;5041937;28;20036;-86
2022/05/14 04:04:03;;;;;;;15.20;5.65;;;;;;;9.22;100.00;102034.13;5059007;28;20025;-82
2022/05/14 04:06:29;;;;;;;12.60;5.40;;;;;;;9.17;100.00;102033.63;5069912;28;20020;-82
2022/05/14 04:08:55;;;;;;;12.80;5.43;;;;;;;9.13;100.00;102033.03;5078219;28;20555;-83
2022/05/14 04:11:20;;;;;;;17.38;5.60;;;;;;;9.19;100.00;102038.84;5076953;28;20388;-84
2022/05/14 04:13:46;;;;;;;16.00;5.43;;;;;;;9.16;100.00;102037.25;5058608;28;20016;-84
2022/05/14 04:16:11;;;;;;;19.67;5.53;;;;;;;9.15;100.00;102038.25;5079930;28;20056;-82
2022/05/14 04:18:37;;;;;;;16.65;5.65;;;;;;;9.07;100.00;102030.84;5062464;28;20096;-82
2022/05/14 04:21:03;;;;;;;18.38;5.20;;;;;;;9.09;100.00;102036.06;5080107;28;20089;-83
2022/05/14 04:23:30;;;;;;;16.00;5.40;;;;;;;9.08;100.00;102045.00;5060867;28;20085;-86
2022/05/14 04:25:57;;;;;;;11.45;5.40;;;;;;;9.10;100.00;102045.75;5077951;28;20052;-87
2022/05/14 04:28:23;;;;;;;21.13;6.20;;;;;;;9.15;100.00;102033.75;5078915;28;20082;-88
2022/05/14 04:30:49;;;;;;;17.13;5.43;;;;;;;9.17;100.00;102040.78;5079621;28;20631;-88
2022/05/14 04:33:16;;;;;;;22.60;5.80;;;;;;;9.13;100.00;102040.16;5052993;28;20040;-88
2022/05/14 04:35:41;;;;;;;19.40;5.80;;;;;;;9.04;100.00;102039.09;5039941;28;20080;-83
2022/05/14 04:38:07;;;;;;;20.75;5.75;;;;;;;9.06;100.00;102053.16;5057965;28;20509;-82
2022/05/14 04:40:33;;;;;;;15.73;5.55;;;;;;;9.10;100.00;102057.25;5056804;28;20032;-82
2022/05/14 04:42:59;;;;;;;19.50;6.40;;;;;;;9.09;100.00;102046.72;5057323;28;20032;-88
2022/05/14 04:45:25;;;;;;;18.90;5.70;;;;;;;9.09;100.00;102044.06;5042225;28;20029;-89
2022/05/14 04:47:50;;;;;;;16.08;5.78;;;;;;;9.09;100.00;102044.06;5069605;28;20113;-89
2022/05/14 04:50:16;;;;;;;18.27;5.57;;;;;;;9.11;100.00;102042.09;5041156;28;20473;-82
2022/05/14 04:52:42;;;;;;;15.10;6.03;;;;;;;9.21;100.00;102061.72;5040959;28;20597;-82
2022/05/14 04:55:08;;;;;;;19.98;5.88;;;;;;;9.24;100.00;102057.97;5059759;28;20025;-81
2022/05/14 04:57:34;;;;;;;17.45;5.97;;;;;;;9.24;100.00;102061.50;5058870;28;20116;-82
2022/05/14 04:59:59;;;;;;;15.32;5.45;;;;;;;9.26;100.00;102054.22;5071175;28;20162;-81
2022/05/14 05:05:12;;;;;;;17.30;6.07;;;;;;;9.34;100.00;102056.28;5063506;28;20055;-81
2022/05/14 05:07:37;;;;;;;23.30;6.25;;;;;;;9.40;100.00;102060.25;5075978;28;20028;-82
2022/05/14 05:10:03;;;;;;;21.13;6.22;;;;;;;9.47;100.00;102066.78;5049416;28;20024;-81
2022/05/14 05:12:29;;;;;;;14.57;6.30;;;;;;;9.47;100.00;102064.13;5065060;28;20027;-86
2022/05/14 05:14:54;;;;;;;20.70;6.85;;;;;;;9.58;100.00;102068.59;5041472;28;20052;-86
2022/05/14 05:17:22;;;;;;;18.58;6.15;;;;;;;9.62;100.00;102065.56;5054265;28;20376;-87
2022/05/14 05:19:47;;;;;;;19.63;6.80;;;;;;;9.74;100.00;102077.03;5051706;28;20021;-86
2022/05/14 05:22:13;;;;;;;22.92;7.00;;;;;;;9.75;100.00;102083.22;5056943;28;20027;-86
2022/05/14 05:24:38;;;;;;;27.77;7.32;;;;;;;9.80;100.00;102076.53;5040391;28;20089;-86
2022/05/14 05:27:04;;;;;;;19.55;6.93;;;;;;;9.87;100.00;102077.72;5061038;28;20484;-86
2022/05/14 05:29:30;;;;;;;13.88;7.05;;;;;;;9.94;100.00;102070.06;5061293;28;20028;-87
2022/05/14 05:31:58;;;;;;;24.92;7.78;;;;;;;10.00;100.00;102074.91;5045364;28;20115;-82
2022/05/14 05:34:24;;;;;;;22.58;7.95;;;;;;;10.05;100.00;102082.53;5055627;28;20558;-86
2022/05/14 05:36:49;;;;;;;19.30;8.13;;;;;;;10.13;100.00;102092.56;5043109;28;20283;-86
2022/05/14 05:39:14;;;;;;;22.42;8.45;;;;;;;10.20;100.00;102085.72;5043120;28;20513;-81
2022/05/14 05:41:40;;;;;;;24.65;8.60;;;;;;;10.27;100.00;102085.09;5043090;28;20040;-81
2022/05/14 05:44:05;;;;;;;18.27;8.60;;;;;;;10.34;100.00;102085.47;5043151;28;20029;-86
2022/05/14 05:46:32;;;;;;;27.83;9.23;;;;;;;10.40;100.00;102084.97;5040119;28;20029;-81
2022/05/14 05:48:58;;;;;;;22.63;8.27;;;;;;;10.51;100.00;102096.56;5043517;28;20898;-81
2022/05/14 05:51:23;;;;;;;21.45;9.30;;;;;;;10.58;100.00;102095.06;5043107;28;20432;-84
2022/05/14 05:56:49;;;;;;;19.48;9.15;;;;;;;10.76;100.00;102093.50;5059641;28;20131;-81
2022/05/14 05:59:16;;;;;;;21.17;9.13;;;;;;;10.85;100.00;102096.34;5062765;28;20025;-81
2022/05/14 06:01:43;;;;;;;25.63;9.60;;;;;;;10.89;100.00;102098.59;5045430;28;20028;-81
2022/05/14 06:04:08;;;;;;;21.33;9.73;;;;;;;10.93;100.00;102107.22;5045864;28;20020;-86
2022/05/14 06:06:33;;;;;;;35.08;9.95;;;;;;;11.00;100.00;102113.75;5076165;28;20454;-84
2022/05/14 06:08:59;;;;;;;28.00;9.95;;;;;;;11.01;100.00;102113.63;5081150;28;20547;-86
2022/05/14 06:11:30;;;;;;;26.40;10.20;;;;;;;11.07;100.00;102106.88;5079711;28;20028;-83
2022/05/14 06:13:56;;;;;;;22.73;9.68;;;;;;;11.21;100.00;102111.00;5066466;28;20061;-81
2022/05/14 06:16:21;;;;;;;28.75;10.50;;;;;;;11.30;100.00;102109.34;5081581;28;20131;-83
2022/05/14 06:18:47;;;;;;;29.67;10.40;;;;;;;11.38;100.00;102110.38;5082159;28;20162;-81
2022/05/14 06:21:13;;;;;;;28.13;9.73;;;;;;;11.50;100.00;102116.47;5082636;28;20503;-81
2022/05/14 06:23:38;;;;;;;28.58;9.93;;;;;;;11.60;100.00;102107.63;5082946;28;20137;-81
2022/05/14 06:26:04;;;;;;;24.35;10.75;;;;;;;11.72;100.00;102115.41;5070611;28;20865;-81
2022/05/14 06:28:29;;;;;;;25.23;10.25;;;;;;;11.83;100.00;102117.13;5063174;28;20419;-82
2022/05/14 06:30:58;;;;;;;22.52;10.25;;;;;;;11.91;100.00;102117.31;5064924;28;20185;-80
2022/05/14 06:33:26;;;;;;;22.38;10.57;;;;;;;11.96;100.00;102118.72;5062618;28;20074;-81
2022/05/14 06:35:58;;;;;;;28.65;10.82;;;;;;;12.09;100.00;102122.81;5062155;28;20024;-82
2022/05/14 06:38:25;;;;;;;25.48;10.48;;;;;;;12.25;100.00;102135.69;5064272;28;20108;-81
2022/05/14 06:40:51;;;;;;;31.77;10.98;;;;;;;12.34;100.00;102138.47;5044046;28;20301;-82
2022/05/14 06:43:16;;;;;;;32.03;11.38;;;;;;;12.45;99.86;102133.00;5045347;28;20024;-80
2022/05/14 06:45:43;;;;;;;25.00;10.75;;;;;;;12.55;99.56;102125.78;5061719;28;20102;-81
2022/05/14 06:48:09;;;;;;;33.88;10.82;;;;;;;12.68;99.59;102133.53;5063149;28;20029;-81
2022/05/14 06:50:42;;;;;;;26.13;10.60;;;;;;;12.78;98.86;102138.88;5061249;28;20016;-81
2022/05/14 06:53:09;;;;;;;36.30;10.52;;;;;;;12.91;98.83;102134.03;5067060;28;20543;-81
2022/05/14 06:55:38;;;;;;;31.80;10.82;;;;;;;13.00;97.54;102141.22;5062730;28;20024;-81
2022/05/14 06:58:05;;;;;;;30.13;11.10;;;;;;;13.06;97.61;102124.53;5063492;28;20047;-81
2022/05/14 07:00:30;;;;;;;29.55;11.20;;;;;;;13.23;97.57;102132.81;5048015;28;20044;-80
2022/05/14 07:06:37;;;;;;;38.60;11.43;;;;;;;13.35;97.30;102129.00;5063026;28;20075;-81
2022/05/14 07:08:25;;;;;;;30.70;11.48;;;;;;;13.65;96.15;102137.75;5043526;28;20031;-82
2022/05/14 07:10:51;;;;;;;32.92;11.35;;;;;;;13.77;95.48;102130.34;5039293;28;20103;-87
2022/05/14 07:13:16;;;;;;;29.80;11.50;;;;;;;13.95;95.02;102128.53;5040892;28;20488;-85
2022/05/14 07:15:41;;;;;;;30.30;10.75;;;;;;;14.08;92.96;102132.69;5040898;28;20110;-87
2022/05/14 07:18:07;;;;;;;27.30;11.02;;;;;;;14.14;92.04;102127.53;5041287;28;20097;-87
2022/05/14 07:20:33;;;;;;;28.70;10.93;;;;;;;14.20;91.48;102138.66;5021819;28;20025;-87
2022/05/14 07:22:58;;;;;;;32.35;10.98;;;;;;;14.36;92.66;102133.47;5040318;28;20083;-87
2022/05/14 07:25:23;;;;;;;30.67;11.43;;;;;;;14.54;93.32;102142.34;5042905;28;20479;-82
2022/05/14 07:27:49;;;;;;;22.90;10.38;;;;;;;14.66;90.06;102136.75;5039615;28;20036;-86
2022/05/14 07:30:14;;;;;;;39.75;11.15;;;;;;;14.66;88.63;102128.69;5040414;28;20048;-87
2022/05/14 07:32:39;;;;;;;30.88;11.20;;;;;;;14.75;89.18;102130.44;5022118;28;20120;-87
2022/05/14 07:35:11;;;;;;;34.13;11.70;;;;;;;14.83;89.54;102137.72;5042970;28;20035;-86
2022/05/14 07:37:44;;;;;;;29.02;11.68;;;;;;;15.02;89.86;102134.81;5040396;28;20040;-86
2022/05/14 07:40:18;;;;;;;29.05;11.00;;;;;;;15.20;88.95;102139.28;5040586;28;20111;-81
2022/05/14 07:42:57;;;;;;;26.80;10.90;;;;;;;15.34;88.24;102135.97;5040653;28;20043;-81
2022/05/14 07:45:27;;;;;;;35.85;11.80;;;;;;;15.47;89.16;102136.38;5042770;28;20028;-81
2022/05/14 07:47:55;;;;;;;36.80;11.70;;;;;;;15.74;87.91;102139.03;5040932;28;20424;-82
2022/05/14 07:50:22;;;;;;;36.10;11.30;;;;;;;15.77;84.58;102138.75;5021336;28;20021;-82
2022/05/14 07:52:47;;;;;;;29.63;11.48;;;;;;;15.93;85.58;102146.00;5041575;28;20031;-81
2022/05/14 07:55:13;;;;;;;29.35;11.50;;;;;;;16.09;85.60;102150.56;5042078;28;20029;-81
2022/05/14 07:57:38;;;;;;;26.27;11.13;;;;;;;16.20;84.74;102147.56;5040838;28;20476;-82
2022/05/14 08:00:05;;;;;;;33.75;11.60;;;;;;;16.32;82.39;102148.09;5041988;28;20469;-81
2022/05/14 08:02:34;;;;;;;30.13;11.43;;;;;;;16.35;82.17;102140.50;5042734;28;20107;-81
2022/05/14 08:05:04;;;;;;;32.50;11.77;;;;;;;16.38;81.87;102137.50;5020956;28;20056;-87
2022/05/14 08:07:31;;;;;;;34.58;11.35;;;;;;;16.51;82.08;102136.97;5038703;28;20037;-88
2022/05/14 08:09:56;;;;;;;26.60;11.38;;;;;;;16.69;80.69;102149.47;5021334;28;20506;-87
2022/05/14 08:12:21;;;;;;;32.80;11.65;;;;;;;16.74;79.44;102158.72;5020994;28;20096;-87
2022/05/14 08:14:47;;;;;;;30.35;10.77;;;;;;;16.84;79.14;102155.88;5039609;28;20045;-82
2022/05/14 08:17:12;;;;;;;37.30;11.50;;;;;;;16.92;77.95;102153.16;5039909;28;20021;-82
2022/05/14 08:19:38;;;;;;;31.60;11.93;;;;;;;16.96;78.59;102143.72;5040557;28;20112;-83
2022/05/14 08:24:49;;;;;;;31.90;11.70;;;;;;;17.21;76.50;102156.28;5038225;28;20715;-81
2022/05/14 08:27:14;;;;;;;32.55;10.77;;;;;;;17.18;76.51;102149.41;5040459;28;20104;-81
2022/05/14 08:29:41;;;;;;;31.73;11.35;;;;;;;17.22;76.90;102147.19;5038126;28;20553;-82
2022/05/14 08:32:06;;;;;;;24.95;10.48;;;;;;;17.36;77.02;102146.47;5021207;28;20028;-82
2022/05/14 08:34:33;;;;;;;27.60;10.98;;;;;;;17.51;76.51;102152.84;5041031;28;20028;-82
2022/05/14 08:36:58;;;;;;;36.83;10.70;;;;;;;17.59;74.66;102151.13;5040162;28;20475;-81
2022/05/14 08:39:25;;;;;;;29.23;10.20;;;;;;;17.70;73.83;102150.72;5040492;28;20125;-81
2022/05/14 08:41:53;;;;;;;34.00;10.43;;;;;;;17.66;71.91;102150.22;5038207;28;20040;-81
2022/05/14 08:44:22;;;;;;;30.48;10.57;;;;;;;17.70;72.40;102158.81;5039434;28;20664;-81
2022/05/14 08:46:53;;;;;;;35.08;10.60;;;;;;;17.80;71.80;102147.81;5039118;28;20025;-81
2022/05/14 08:49:31;;;;;;;26.05;10.18;;;;;;;17.94;72.83;102157.03;5038111;28;20136;-80
2022/05/14 08:51:57;;;;;;;37.95;9.70;;;;;;;17.84;69.49;102149.97;5038669;28;20009;-83
2022/05/14 08:54:22;;;;;;;33.05;10.55;;;;;;;17.95;70.17;102159.56;5050077;28;20054;-82
2022/05/14 08:57:24;;;;;;;27.13;9.32;;;;;;;17.95;70.86;102151.47;5040397;28;20392;-83
2022/05/14 08:59:55;;;;;;;31.33;9.40;;;;;;;18.16;69.65;102160.78;5059848;28;20040;-83
2022/05/14 09:02:25;;;;;;;30.45;9.57;;;;;;;18.32;69.74;102149.03;5057980;28;20122;-82
2022/05/14 09:05:02;;;;;;;36.35;9.80;;;;;;;18.35;67.57;102140.56;5059491;28;20017;-82
2022/05/14 09:07:28;;;;;;;30.85;9.07;;;;;;;18.35;67.70;102151.38;5038536;28;20040;-80
2022/05/14 09:09:56;;;;;;;26.20;9.32;;;;;;;18.57;67.43;102157.81;5043781;28;20736;-81
2022/05/14 09:12:28;;;;;;;28.67;9.77;;;;;;;18.68;65.72;102153.81;5039323;28;20040;-81
2022/05/14 09:15:00;;;;;;;30.48;9.68;;;;;;;18.78;65.42;102152.50;5039119;28;20139;-82
2022/05/14 09:17:29;;;;;;;31.45;9.85;;;;;;;18.71;66.08;102148.88;5045388;28;20036;-86
2022/05/14 09:19:55;;;;;;;34.67;10.52;;;;;;;18.84;65.57;102151.00;5050265;28;20400;-85
2022/05/14 09:22:30;;;;;;;30.35;9.55;;;;;;;18.92;65.11;102163.59;5048357;28;20025;-85
2022/05/14 09:25:20;;;;;;;26.52;8.88;;;;;;;19.15;65.02;102148.13;5038249;28;20028;-81
2022/05/14 09:27:59;;;;;;;29.63;8.82;;;;;;;19.38;66.65;102150.75;5038319;28;20033;-81
2022/05/14 09:30:53;;;;;;;30.27;9.20;;;;;;;19.46;62.56;102148.94;5037613;28;20025;-81
2022/05/14 09:33:27;;;;;;;22.98;8.80;;;;;;;19.63;67.53;102145.00;5039085;28;20096;-81
2022/05/14 09:36:00;;;;;;;26.65;9.23;;;;;;;19.63;61.50;102145.00;5038356;28;20399;-80
2022/05/14 09:38:29;;;;;;;27.40;9.18;;;;;;;19.81;61.40;102150.06;5019133;28;20174;-81
2022/05/14 09:41:06;;;;;;;26.88;8.85;;;;;;;19.81;59.45;102149.22;5037774;28;20025;-82
2022/05/14 09:43:36;;;;;;;33.53;9.93;;;;;;;19.72;60.72;102148.44;5037768;28;20036;-81
2022/05/14 09:46:10;;;;;;;31.77;9.60;;;;;;;20.12;61.87;102152.47;5036617;28;20408;-81
2022/05/14 09:48:51;;;;;;;29.73;10.00;;;;;;;20.49;61.13;102138.84;5036325;28;20127;-85
2022/05/14 09:51:29;;;;;;;;;;;;;;;20.89;60.53;102141.06;5041917;28;20082;-81
2022/05/14 09:53:55;;;;;;;30.48;10.55;;;;;;;21.04;57.90;102142.66;5044534;28;19913;-82
2022/05/14 09:56:38;;;;;;;22.70;8.43;;;;;;;21.26;56.25;102147.97;5039667;28;20404;-81
2022/05/14 09:59:41;;;;;;;24.75;8.70;;;;;;;21.24;54.07;102152.78;5043175;28;20462;-83
2022/05/14 10:02:25;;;;;;;24.08;7.80;;;;;;;21.02;56.08;102147.41;5042580;28;20024;-79
2022/05/14 10:05:26;;;;;;;23.90;7.45;;;;;;;20.57;54.92;102146.84;5042381;28;20031;-80
2022/05/14 10:08:16;;;;;;;30.15;9.07;;;;;;;20.25;58.17;102140.09;5042528;28;20932;-86
2022/05/14 10:10:54;;;;;;;23.52;7.85;;;;;;;20.50;56.31;102149.50;5023369;28;20033;-81
2022/05/14 10:13:27;;;;;;;28.40;7.57;;;;;;;20.95;55.83;102149.25;5041159;28;20436;-81
2022/05/14 10:16:11;;;;;;;26.02;8.25;;;;;;;21.17;55.51;102151.91;5046961;28;20539;-81
2022/05/14 10:18:36;;;;;;;22.80;7.82;;;;;;;20.86;52.44;102143.13;5057459;28;20025;-80
2022/05/14 10:21:36;;;;;;;27.08;8.40;;;;;;;20.98;55.97;102137.16;5041371;28;20471;-86
2022/05/14 10:27:15;;;;;;;22.40;6.60;;;;;;;21.77;52.84;102138.63;5041313;28;20066;-86
2022/05/14 10:29:46;;;;;;;22.27;7.07;;;;;;;21.70;49.08;102135.03;5041715;28;20071;-85
2022/05/14 10:32:16;;;;;;;;;;;;;;;22.01;49.68;102128.22;5041664;28;20032;-85
2022/05/14 10:35:17;;;;;;;21.67;6.43;;;;;;;21.94;47.90;102131.75;5041060;28;19908;-85
2022/05/14 10:37:52;;;;;;;18.83;6.32;;;;;;;22.51;49.14;102128.72;5036876;28;20099;-85
2022/05/14 10:40:24;;;;;;;21.48;6.40;;;;;;;22.80;47.56;102130.16;5040508;28;20420;-85
2022/05/14 10:42:59;;;;;;;23.42;6.82;;;;;;;22.70;47.66;102129.75;5041610;28;20471;-86
2022/05/14 10:45:41;;;;;;;24.23;6.88;;;;;;;23.03;49.43;102124.28;5040391;28;20036;-86
2022/05/14 10:48:47;;;;;;;21.70;6.70;;;;;;;22.95;45.84;102138.13;5040639;28;20017;-86
2022/05/14 10:51:20;;;;;;;22.60;6.30;;;;;;;22.38;46.64;102139.63;5040266;28;20584;-85
2022/05/14 10:53:45;;;;;;;19.10;5.88;;;;;;;21.95;46.11;102129.88;5039343;28;20109;-87
2022/05/14 10:56:16;;;;;;;22.52;6.68;;;;;;;22.05;48.66;102132.22;5055189;28;20221;-86
2022/05/14 10:59:11;;;;;;;19.15;5.68;;;;;;;22.14;47.89;102133.69;5060643;28;20023;-86
2022/05/14 11:02:04;;;;;;;23.05;6.60;;;;;;;21.84;47.77;102138.63;5060792;28;20033;-85
2022/05/14 11:04:36;;;;;;;20.95;6.57;;;;;;;21.98;47.86;102141.19;5060709;28;20779;-86
2022/05/14 11:07:10;;;;;;;18.83;6.03;;;;;;;22.16;45.31;102132.41;5059222;28;20316;-87
2022/05/14 11:09:41;;;;;;;24.60;6.03;;;;;;;22.53;46.74;102130.19;5080631;28;20020;-86
2022/05/14 11:12:32;;;;;;;22.98;6.38;;;;;;;23.11;44.02;102133.28;5080906;28;20098;-86
2022/05/14 11:14:59;;;;;;;23.85;5.88;;;;;;;23.19;42.09;102127.63;5068959;28;20096;-81
2022/05/14 11:17:29;;;;;;;20.45;6.28;;;;;;;23.23;44.54;102132.41;5080708;28;20035;-82
2022/05/14 11:20:03;;;;;;;19.77;5.83;;;;;;;23.33;42.80;102129.25;5081042;28;20027;-82
2022/05/14 11:22:39;;;;;;;16.55;5.40;;;;;;;23.53;44.00;102137.34;5080526;28;20016;-83
2022/05/14 11:25:19;;;;;;;17.38;5.10;;;;;;;23.61;42.72;102134.38;5079246;28;20069;-81
2022/05/14 11:28:03;;;;;;;19.60;6.28;;;;;;;23.22;45.00;102138.94;5040383;28;20116;-83
2022/05/14 11:30:34;;;;;;;19.70;5.90;;;;;;;23.08;47.44;102142.72;5038384;28;20391;-81
2022/05/14 11:33:01;;;;;;;22.75;6.22;;;;;;;22.88;46.54;102131.84;5021305;28;20119;-81
2022/05/14 11:35:40;;;;;;;20.60;5.80;;;;;;;22.72;46.60;102138.56;5038397;28;20024;-83
2022/05/14 11:38:32;;;;;;;20.63;6.10;;;;;;;22.81;47.05;102139.16;5038937;28;20518;-84
2022/05/14 11:41:02;;;;;;;22.70;6.10;;;;;;;22.98;46.71;102129.53;5037872;28;20511;-86
2022/05/14 11:43:36;;;;;;;18.93;6.10;;;;;;;23.06;46.27;102137.47;5038667;28;20458;-84
2022/05/14 11:46:20;;;;;;;24.27;5.97;;;;;;;23.04;47.10;102134.09;5021209;28;20052;-84